
Distance (Route):
Temperature : 17.1°C
Humidity : 59.1%
Pressure : 0hPa| Receiver | Frames | First received | Last received |
|---|---|---|---|
| LZ4TU-5 | 118 | 2026-08-31 23:25:33 | 2026-09-01 01:11:49 |
| Receiver | Date | Latitude | Longitude | Direction | Speed | Altitude | Climb | Temperature | Humidity | Pressure | Voltage | Killtimer | Uptime | BKT | XDATA |
|---|---|---|---|---|---|---|---|---|---|---|---|---|---|---|---|
| LZ4TU-5 | 2026-09-01 01:11:49 | 43.28126 | 22.68061 | 53° | 18km/h | 2036m | -12.2m/s | 17.1°C | 59.1% | 0hPa | 0V | 00:00:00 | 00:00:00 | 00:00:00 | |
| LZ4TU-5 | 2026-09-01 01:11:44 | 43.28110 | 22.68026 | 61° | 24km/h | 2082m | -12.2m/s | 16.6°C | 59.9% | 0hPa | 0V | 00:00:00 | 00:00:00 | 00:00:00 | |
| LZ4TU-5 | 2026-09-01 01:11:39 | 43.28094 | 22.67990 | 60° | 26km/h | 2149m | -12.3m/s | 16.4°C | 60.3% | 0hPa | 0V | 00:00:00 | 00:00:00 | 00:00:00 | |
| LZ4TU-5 | 2026-09-01 01:11:34 | 43.28078 | 22.67956 | 60° | 24km/h | 2215m | -12.2m/s | 15.8°C | 61.9% | 0hPa | 0V | 00:00:00 | 00:00:00 | 00:00:00 | |
| LZ4TU-5 | 2026-09-01 01:11:29 | 43.28065 | 22.67922 | 63° | 24km/h | 2281m | -12.4m/s | 15.3°C | 64.1% | 0hPa | 0V | 00:00:00 | 00:00:00 | 00:00:00 | |
| LZ4TU-5 | 2026-09-01 01:11:25 | 43.28057 | 22.67896 | 67° | 22km/h | 2336m | -12.5m/s | 15.0°C | 65.6% | 0hPa | 0V | 00:00:00 | 00:00:00 | 00:00:00 | |
| LZ4TU-5 | 2026-09-01 01:11:21 | 43.28046 | 22.67869 | 67° | 20km/h | 2390m | -12.4m/s | 14.6°C | 66.8% | 0hPa | 0V | 00:00:00 | 00:00:00 | 00:00:00 | |
| LZ4TU-5 | 2026-09-01 01:11:17 | 43.28037 | 22.67842 | 70° | 20km/h | 2444m | -12.3m/s | 14.2°C | 67.6% | 0hPa | 0V | 00:00:00 | 00:00:00 | 00:00:00 | |
| LZ4TU-5 | 2026-09-01 01:11:12 | 43.28028 | 22.67811 | 66° | 16km/h | 2497m | -12.6m/s | 13.6°C | 68.7% | 0hPa | 0V | 00:00:00 | 00:00:00 | 00:00:00 | |
| LZ4TU-5 | 2026-09-01 01:11:07 | 43.28019 | 22.67784 | 65° | 16km/h | 2564m | -13.6m/s | 13.1°C | 69.7% | 0hPa | 0V | 00:00:00 | 00:00:00 | 00:00:00 | |
| LZ4TU-5 | 2026-09-01 01:11:02 | 43.28010 | 22.67757 | 73° | 16km/h | 2633m | -13.6m/s | 12.5°C | 71.2% | 0hPa | 0V | 00:00:00 | 00:00:00 | 00:00:00 | |
| LZ4TU-5 | 2026-09-01 01:10:58 | 43.28003 | 22.67733 | 70° | 16km/h | 2688m | -13.7m/s | 12.1°C | 71.0% | 0hPa | 0V | 00:00:00 | 00:00:00 | 00:00:00 | |
| LZ4TU-5 | 2026-09-01 01:10:53 | 43.27995 | 22.67702 | 74° | 16km/h | 2751m | -13.9m/s | 11.5°C | 68.7% | 0hPa | 0V | 00:00:00 | 00:00:00 | 00:00:00 | |
| LZ4TU-5 | 2026-09-01 01:04:17 | 43.28937 | 22.62656 | 103° | 73km/h | 8925m | -17.5m/s | -28.3°C | 20.1% | 0hPa | 0V | 00:00:00 | 00:00:00 | 00:00:00 | |
| LZ4TU-5 | 2026-09-01 01:04:12 | 43.28952 | 22.62530 | 102° | 73km/h | 9007m | -17.8m/s | -29.0°C | 0% | 0hPa | 0V | 00:00:00 | 00:00:00 | 00:00:00 | |
| LZ4TU-5 | 2026-09-01 01:01:59 | 43.29337 | 22.58820 | 108° | 106km/h | 11378m | -19.5m/s | -48.6°C | 32.3% | 0hPa | 0V | 00:00:00 | 00:00:00 | 00:00:00 | |
| LZ4TU-5 | 2026-09-01 01:01:55 | 43.29371 | 22.58683 | 109° | 108km/h | 11461m | -19.3m/s | -49.2°C | 32.9% | 0hPa | 0V | 00:00:00 | 00:00:00 | 00:00:00 | |
| LZ4TU-5 | 2026-09-01 01:00:04 | 43.30156 | 22.54998 | 91° | 69km/h | 13942m | -24.3m/s | -62.4°C | 5.6% | 0hPa | 0V | 00:00:00 | 00:00:00 | 00:00:00 | |
| LZ4TU-5 | 2026-09-01 00:59:59 | 43.30152 | 22.54874 | 81° | 71km/h | 14056m | -23.8m/s | -62.5°C | 4.7% | 0hPa | 0V | 00:00:00 | 00:00:00 | 00:00:00 | |
| LZ4TU-5 | 2026-09-01 00:58:23 | 43.30055 | 22.52926 | 116° | 51km/h | 16572m | -28.9m/s | -61.8°C | 0.0% | 0hPa | 0V | 00:00:00 | 00:00:00 | 00:00:00 | |
| LZ4TU-5 | 2026-09-01 00:58:19 | 43.30075 | 22.52868 | 123° | 38km/h | 16687m | -29.0m/s | -61.7°C | 0.0% | 0hPa | 0V | 00:00:00 | 00:00:00 | 00:00:00 | |
| LZ4TU-5 | 2026-09-01 00:56:23 | 43.29859 | 22.52168 | 58° | 20km/h | 20461m | -36.8m/s | -56.0°C | 0.0% | 0hPa | 0V | 00:00:00 | 00:00:00 | 00:00:00 | |
| LZ4TU-5 | 2026-09-01 00:56:19 | 43.29853 | 22.52149 | 80° | 15km/h | 20612m | -36.6m/s | -55.3°C | 0.0% | 0hPa | 0V | 00:00:00 | 00:00:00 | 00:00:00 | |
| LZ4TU-5 | 2026-09-01 00:56:13 | 43.29853 | 22.52118 | 92° | 11km/h | 20834m | -38.4m/s | -55.5°C | 0.0% | 0hPa | 0V | 00:00:00 | 00:00:00 | 00:00:00 | |
| LZ4TU-5 | 2026-09-01 00:53:35 | 43.29725 | 22.52222 | 283° | 13km/h | 27947m | -58.4m/s | -46.0°C | 0.2% | 0hPa | 0V | 00:00:00 | 00:00:00 | 00:00:00 | |
| LZ4TU-5 | 2026-09-01 00:53:30 | 43.29726 | 22.52247 | 267° | 18km/h | 28251m | -64.1m/s | -44.2°C | 0.0% | 0hPa | 0V | 00:00:00 | 00:00:00 | 00:00:00 | |
| LZ4TU-5 | 2026-09-01 00:51:40 | 43.29714 | 22.52349 | 300° | 26km/h | 30613m | 6.5m/s | -41.6°C | 0.0% | 0hPa | 0V | 00:00:00 | 00:00:00 | 00:00:00 | |
| LZ4TU-5 | 2026-09-01 00:51:35 | 43.29707 | 22.52380 | 3° | 9km/h | 30582m | 6.1m/s | -41.5°C | 0.0% | 0hPa | 0V | 00:00:00 | 00:00:00 | 00:00:00 | |
| LZ4TU-5 | 2026-09-01 00:49:13 | 43.29445 | 22.52916 | 296° | 24km/h | 29649m | 6.8m/s | -42.9°C | 0.0% | 0hPa | 0V | 00:00:00 | 00:00:00 | 00:00:00 | |
| LZ4TU-5 | 2026-09-01 00:49:09 | 43.29455 | 22.52948 | 190° | 18km/h | 29624m | 6.7m/s | -42.8°C | 0.0% | 0hPa | 0V | 00:00:00 | 00:00:00 | 00:00:00 | |
| LZ4TU-5 | 2026-09-01 00:46:13 | 43.29601 | 22.53775 | 255° | 15km/h | 28519m | 7.6m/s | -45.6°C | 0.0% | 0hPa | 0V | 00:00:00 | 00:00:00 | 00:00:00 | |
| LZ4TU-5 | 2026-09-01 00:42:10 | 43.29397 | 22.54679 | 276° | 26km/h | 27001m | 7.4m/s | -49.5°C | 0.0% | 0hPa | 0V | 00:00:00 | 00:00:00 | 00:00:00 | |
| LZ4TU-5 | 2026-09-01 00:42:05 | 43.29404 | 22.54719 | 236° | 24km/h | 26966m | 7.6m/s | -49.6°C | 0.0% | 0hPa | 0V | 00:00:00 | 00:00:00 | 00:00:00 | |
| LZ4TU-5 | 2026-09-01 00:40:07 | 43.29693 | 22.54899 | 105° | 11km/h | 26180m | 5.7m/s | -50.6°C | 0.0% | 0hPa | 0V | 00:00:00 | 00:00:00 | 00:00:00 | |
| LZ4TU-5 | 2026-09-01 00:40:03 | 43.29700 | 22.54889 | 179° | 9km/h | 26155m | 6.0m/s | -51.0°C | 0.0% | 0hPa | 0V | 00:00:00 | 00:00:00 | 00:00:00 | |
| LZ4TU-5 | 2026-09-01 00:38:10 | 43.29580 | 22.54720 | 100° | 22km/h | 25449m | 5.8m/s | -53.0°C | 0.0% | 0hPa | 0V | 00:00:00 | 00:00:00 | 00:00:00 | |
| LZ4TU-5 | 2026-09-01 00:38:06 | 43.29589 | 22.54707 | 184° | 27km/h | 25424m | 7.0m/s | -53.0°C | 0.0% | 0hPa | 0V | 00:00:00 | 00:00:00 | 00:00:00 | |
| LZ4TU-5 | 2026-09-01 00:36:15 | 43.29520 | 22.54355 | 36° | 15km/h | 24716m | 6.7m/s | -51.7°C | 0.0% | 0hPa | 0V | 00:00:00 | 00:00:00 | 00:00:00 | |
| LZ4TU-5 | 2026-09-01 00:36:11 | 43.29510 | 22.54342 | 61° | 18km/h | 24688m | 6.2m/s | -51.7°C | 0.0% | 0hPa | 0V | 00:00:00 | 00:00:00 | 00:00:00 | |
| LZ4TU-5 | 2026-09-01 00:34:20 | 43.29258 | 22.54356 | 315° | 22km/h | 24004m | 6.4m/s | -53.0°C | 0.0% | 0hPa | 0V | 00:00:00 | 00:00:00 | 00:00:00 | |
| LZ4TU-5 | 2026-09-01 00:34:16 | 43.29248 | 22.54364 | 0° | 0km/h | 23982m | 5.4m/s | -53.2°C | 0.0% | 0hPa | 0V | 00:00:00 | 00:00:00 | 00:00:00 | |
| LZ4TU-5 | 2026-09-01 00:32:28 | 43.29261 | 22.54259 | 52° | 15km/h | 23346m | 5.6m/s | -54.8°C | 0.0% | 0hPa | 0V | 00:00:00 | 00:00:00 | 00:00:00 | |
| LZ4TU-5 | 2026-09-01 00:32:23 | 43.29249 | 22.54251 | 43° | 5km/h | 23316m | 6.1m/s | -55.0°C | 0.0% | 0hPa | 0V | 00:00:00 | 00:00:00 | 00:00:00 | |
| LZ4TU-5 | 2026-09-01 00:30:34 | 43.29118 | 22.54208 | 360° | 4km/h | 22682m | 5.6m/s | -53.8°C | 0.0% | 0hPa | 0V | 00:00:00 | 00:00:00 | 00:00:00 | |
| LZ4TU-5 | 2026-09-01 00:30:29 | 43.29123 | 22.54206 | 342° | 11km/h | 22654m | 7.0m/s | -54.2°C | 0.0% | 0hPa | 0V | 00:00:00 | 00:00:00 | 00:00:00 | |
| LZ4TU-5 | 2026-09-01 00:28:41 | 43.28721 | 22.54243 | 20° | 29km/h | 22039m | 5.9m/s | -54.5°C | 0.0% | 0hPa | 0V | 00:00:00 | 00:00:00 | 00:00:00 | |
| LZ4TU-5 | 2026-09-01 00:28:36 | 43.28685 | 22.54250 | 333° | 24km/h | 22010m | 5.5m/s | -54.4°C | 0.0% | 0hPa | 0V | 00:00:00 | 00:00:00 | 00:00:00 | |
| LZ4TU-5 | 2026-09-01 00:26:10 | 43.28479 | 22.54820 | 202° | 11km/h | 21188m | 6.1m/s | -54.0°C | 0.0% | 0hPa | 0V | 00:00:00 | 00:00:00 | 00:00:00 | |
| LZ4TU-5 | 2026-09-01 00:24:25 | 43.28497 | 22.54344 | 77° | 20km/h | 20607m | 6.1m/s | -55.7°C | 70.2% | 0hPa | 0V | 00:00:00 | 00:00:00 | 00:00:00 | |
| LZ4TU-5 | 2026-09-01 00:24:20 | 43.28486 | 22.54321 | 110° | 9km/h | 20581m | 4.4m/s | -55.7°C | 0.3% | 0hPa | 0V | 00:00:00 | 00:00:00 | 00:00:00 | |
| LZ4TU-5 | 2026-09-01 00:22:36 | 43.28228 | 22.53982 | 352° | 13km/h | 20024m | 4.4m/s | -56.5°C | 0.3% | 0hPa | 0V | 00:00:00 | 00:00:00 | 00:00:00 | |
| LZ4TU-5 | 2026-09-01 00:22:31 | 43.28223 | 22.53984 | 5° | 9km/h | 19996m | 5.5m/s | -56.7°C | 0.3% | 0hPa | 0V | 00:00:00 | 00:00:00 | 00:00:00 | |
| LZ4TU-5 | 2026-09-01 00:20:44 | 43.27840 | 22.53413 | 29° | 24km/h | 19426m | 6.4m/s | -57.5°C | 1.0% | 0hPa | 0V | 00:00:00 | 00:00:00 | 00:00:00 | |
| LZ4TU-5 | 2026-09-01 00:20:39 | 43.27812 | 22.53406 | 343° | 31km/h | 19399m | 5.5m/s | -57.3°C | 1.0% | 0hPa | 0V | 00:00:00 | 00:00:00 | 00:00:00 | |
| LZ4TU-5 | 2026-09-01 00:18:54 | 43.27547 | 22.52954 | 145° | 24km/h | 18818m | 5.1m/s | -57.0°C | 1.7% | 0hPa | 0V | 00:00:00 | 00:00:00 | 00:00:00 | |
| LZ4TU-5 | 2026-09-01 00:18:49 | 43.27552 | 22.52934 | 49° | 9km/h | 18791m | 6.2m/s | -57.0°C | 1.8% | 0hPa | 0V | 00:00:00 | 00:00:00 | 00:00:00 | |
| LZ4TU-5 | 2026-09-01 00:16:53 | 43.27700 | 22.52537 | 84° | 29km/h | 18197m | 5.4m/s | -57.7°C | 2.0% | 0hPa | 0V | 00:00:00 | 00:00:00 | 00:00:00 | |
| LZ4TU-5 | 2026-09-01 00:16:48 | 43.27700 | 22.52489 | 89° | 26km/h | 18171m | 4.9m/s | -57.9°C | 2.0% | 0hPa | 0V | 00:00:00 | 00:00:00 | 00:00:00 | |
| LZ4TU-5 | 2026-09-01 00:15:03 | 43.27342 | 22.51599 | 90° | 16km/h | 17635m | 4.9m/s | -60.4°C | 2.8% | 0hPa | 0V | 00:00:00 | 00:00:00 | 00:00:00 | |
| LZ4TU-5 | 2026-09-01 00:14:58 | 43.27334 | 22.51570 | 57° | 22km/h | 17607m | 6.0m/s | -60.8°C | 2.9% | 0hPa | 0V | 00:00:00 | 00:00:00 | 00:00:00 | |
| LZ4TU-5 | 2026-09-01 00:13:12 | 43.27188 | 22.50870 | 27° | 11km/h | 17051m | 4.4m/s | -60.0°C | 4.2% | 0hPa | 0V | 00:00:00 | 00:00:00 | 00:00:00 | |
| LZ4TU-5 | 2026-09-01 00:13:08 | 43.27185 | 22.50852 | 107° | 11km/h | 17030m | 5.3m/s | -60.0°C | 0% | 0hPa | 0V | 00:00:00 | 00:00:00 | 00:00:00 | |
| LZ4TU-5 | 2026-09-01 00:11:23 | 43.27627 | 22.49893 | 110° | 62km/h | 16486m | 5.4m/s | -62.3°C | 5.4% | 0hPa | 0V | 00:00:00 | 00:00:00 | 00:00:00 | |
| LZ4TU-5 | 2026-09-01 00:11:18 | 43.27645 | 22.49797 | 102° | 47km/h | 16462m | 4.5m/s | -62.4°C | 5.5% | 0hPa | 0V | 00:00:00 | 00:00:00 | 00:00:00 | |
| LZ4TU-5 | 2026-09-01 00:09:36 | 43.27260 | 22.47881 | 70° | 53km/h | 15948m | 5.6m/s | -61.8°C | 7.6% | 0hPa | 0V | 00:00:00 | 00:00:00 | 00:00:00 | |
| LZ4TU-5 | 2026-09-01 00:07:40 | 43.27292 | 22.45743 | 92° | 71km/h | 15363m | 3.8m/s | -60.7°C | 11.7% | 0hPa | 0V | 00:00:00 | 00:00:00 | 00:00:00 | |
| LZ4TU-5 | 2026-09-01 00:07:35 | 43.27287 | 22.45616 | 82° | 71km/h | 15338m | 5.5m/s | -60.7°C | 11.9% | 0hPa | 0V | 00:00:00 | 00:00:00 | 00:00:00 | |
| LZ4TU-5 | 2026-09-01 00:05:51 | 43.26955 | 22.43491 | 69° | 35km/h | 14857m | 4.5m/s | -60.7°C | 16.8% | 0hPa | 0V | 00:00:00 | 00:00:00 | 00:00:00 | |
| LZ4TU-5 | 2026-09-01 00:05:47 | 43.26940 | 22.43417 | 81° | 55km/h | 14835m | 4.2m/s | -60.9°C | 17.2% | 0hPa | 0V | 00:00:00 | 00:00:00 | 00:00:00 | |
| LZ4TU-5 | 2026-09-01 00:04:05 | 43.27016 | 22.41268 | 95° | 69km/h | 14358m | 4.0m/s | -62.7°C | 24.6% | 0hPa | 0V | 00:00:00 | 00:00:00 | 00:00:00 | |
| LZ4TU-5 | 2026-09-01 00:04:02 | 43.27022 | 22.41170 | 97° | 71km/h | 14341m | 4.6m/s | -62.8°C | 24.7% | 0hPa | 0V | 00:00:00 | 00:00:00 | 00:00:00 | |
| LZ4TU-5 | 2026-09-01 00:02:28 | 43.26978 | 22.38731 | 100° | 71km/h | 13893m | 4.4m/s | -63.5°C | 28.4% | 0hPa | 0V | 00:00:00 | 00:00:00 | 00:00:00 | |
| LZ4TU-5 | 2026-09-01 00:02:24 | 43.26990 | 22.38628 | 98° | 73km/h | 13875m | 4.9m/s | -63.5°C | 28.6% | 0hPa | 0V | 00:00:00 | 00:00:00 | 00:00:00 | |
| LZ4TU-5 | 2026-09-01 00:00:40 | 43.27227 | 22.36178 | 99° | 75km/h | 13419m | 4.4m/s | -61.6°C | 32.7% | 0hPa | 0V | 00:00:00 | 00:00:00 | 00:00:00 | |
| LZ4TU-5 | 2026-09-01 00:00:33 | 43.27247 | 22.36042 | 106° | 78km/h | 13396m | 4.9m/s | -61.4°C | 32.7% | 0hPa | 0V | 00:00:00 | 00:00:00 | 00:00:00 | |
| LZ4TU-5 | 2026-08-31 23:58:53 | 43.27831 | 22.33135 | 107° | 93km/h | 12933m | 4.6m/s | -59.9°C | 34.9% | 0hPa | 0V | 00:00:00 | 00:00:00 | 00:00:00 | |
| LZ4TU-5 | 2026-08-31 23:58:48 | 43.27860 | 22.32965 | 105° | 104km/h | 12910m | 4.8m/s | -59.8°C | 34.9% | 0hPa | 0V | 00:00:00 | 00:00:00 | 00:00:00 | |
| LZ4TU-5 | 2026-08-31 23:57:06 | 43.28679 | 22.29512 | 105° | 99km/h | 12452m | 4.3m/s | -56.7°C | 32.8% | 0hPa | 0V | 00:00:00 | 00:00:00 | 00:00:00 | |
| LZ4TU-5 | 2026-08-31 23:57:01 | 43.28720 | 22.29342 | 116° | 108km/h | 12430m | 4.2m/s | -56.5°C | 32.7% | 0hPa | 0V | 00:00:00 | 00:00:00 | 00:00:00 | |
| LZ4TU-5 | 2026-08-31 23:55:21 | 43.29501 | 22.25962 | 107° | 97km/h | 12000m | 4.3m/s | -53.2°C | 26.7% | 0hPa | 0V | 00:00:00 | 00:00:00 | 00:00:00 | |
| LZ4TU-5 | 2026-08-31 23:55:16 | 43.29538 | 22.25798 | 110° | 111km/h | 11981m | 3.2m/s | -53.1°C | 26.7% | 0hPa | 0V | 00:00:00 | 00:00:00 | 00:00:00 | |
| LZ4TU-5 | 2026-08-31 23:53:35 | 43.30373 | 22.22557 | 107° | 93km/h | 11561m | 4.7m/s | -50.4°C | 25.8% | 0hPa | 0V | 00:00:00 | 00:00:00 | 00:00:00 | |
| LZ4TU-5 | 2026-08-31 23:53:31 | 43.30400 | 22.22427 | 111° | 102km/h | 11546m | 3.1m/s | -50.2°C | 25.8% | 0hPa | 0V | 00:00:00 | 00:00:00 | 00:00:00 | |
| LZ4TU-5 | 2026-08-31 23:51:37 | 43.31180 | 22.18843 | 103° | 82km/h | 11049m | 5.2m/s | -46.4°C | 26.0% | 0hPa | 0V | 00:00:00 | 00:00:00 | 00:00:00 | |
| LZ4TU-5 | 2026-08-31 23:49:40 | 43.31603 | 22.15392 | 98° | 86km/h | 10548m | 3.9m/s | -42.7°C | 25.6% | 0hPa | 0V | 00:00:00 | 00:00:00 | 00:00:00 | |
| LZ4TU-5 | 2026-08-31 23:49:36 | 43.31612 | 22.15269 | 98° | 86km/h | 10532m | 4.7m/s | -42.5°C | 25.4% | 0hPa | 0V | 00:00:00 | 00:00:00 | 00:00:00 | |
| LZ4TU-5 | 2026-08-31 23:49:32 | 43.31629 | 22.15138 | 101° | 75km/h | 10511m | 4.7m/s | -42.4°C | 25.3% | 0hPa | 0V | 00:00:00 | 00:00:00 | 00:00:00 | |
| LZ4TU-5 | 2026-08-31 23:47:43 | 43.31927 | 22.12397 | 93° | 69km/h | 10017m | 2.9m/s | -38.8°C | 25.6% | 0hPa | 0V | 00:00:00 | 00:00:00 | 00:00:00 | |
| LZ4TU-5 | 2026-08-31 23:47:39 | 43.31930 | 22.12275 | 94° | 64km/h | 9995m | 4.6m/s | -38.6°C | 0% | 0hPa | 0V | 00:00:00 | 00:00:00 | 00:00:00 | |
| LZ4TU-5 | 2026-08-31 23:45:53 | 43.32158 | 22.09766 | 104° | 66km/h | 9548m | 3.2m/s | -34.5°C | 21.2% | 0hPa | 0V | 00:00:00 | 00:00:00 | 00:00:00 | |
| LZ4TU-5 | 2026-08-31 23:45:48 | 43.32162 | 22.09648 | 92° | 69km/h | 9527m | 3.2m/s | -34.3°C | 21.4% | 0hPa | 0V | 00:00:00 | 00:00:00 | 00:00:00 | |
| LZ4TU-5 | 2026-08-31 23:44:05 | 43.32328 | 22.07212 | 97° | 71km/h | 9081m | 5.0m/s | -30.4°C | 18.4% | 0hPa | 0V | 00:00:00 | 00:00:00 | 00:00:00 | |
| LZ4TU-5 | 2026-08-31 23:44:00 | 43.32337 | 22.07096 | 96° | 68km/h | 9059m | 4.3m/s | -30.2°C | 18.3% | 0hPa | 0V | 00:00:00 | 00:00:00 | 00:00:00 | |
| LZ4TU-5 | 2026-08-31 23:42:25 | 43.32643 | 22.04813 | 108° | 77km/h | 8615m | 5.2m/s | -26.3°C | 13.6% | 0hPa | 0V | 00:00:00 | 00:00:00 | 00:00:00 | |
| LZ4TU-5 | 2026-08-31 23:42:20 | 43.32665 | 22.04692 | 104° | 71km/h | 8594m | 4.1m/s | -26.1°C | 13.3% | 0hPa | 0V | 00:00:00 | 00:00:00 | 00:00:00 | |
| LZ4TU-5 | 2026-08-31 23:40:55 | 43.32944 | 22.02813 | 71° | 49km/h | 8177m | 4.0m/s | -22.6°C | 11.5% | 0hPa | 0V | 00:00:00 | 00:00:00 | 00:00:00 | |
| LZ4TU-5 | 2026-08-31 23:40:50 | 43.32931 | 22.02701 | 102° | 64km/h | 8144m | 6.5m/s | -22.3°C | 11.4% | 0hPa | 0V | 00:00:00 | 00:00:00 | 00:00:00 | |
| LZ4TU-5 | 2026-08-31 23:39:24 | 43.32834 | 22.00790 | 101° | 77km/h | 7695m | 7.3m/s | -19.3°C | 15.6% | 0hPa | 0V | 00:00:00 | 00:00:00 | 00:00:00 | |
| LZ4TU-5 | 2026-08-31 23:39:19 | 43.32838 | 22.00683 | 81° | 71km/h | 7665m | 7.3m/s | -19.0°C | 0% | 0hPa | 0V | 00:00:00 | 00:00:00 | 00:00:00 | |
| LZ4TU-5 | 2026-08-31 23:37:32 | 43.32974 | 21.98397 | 91° | 75km/h | 7129m | 3.2m/s | -15.0°C | 18.1% | 0hPa | 0V | 00:00:00 | 00:00:00 | 00:00:00 | |
| LZ4TU-5 | 2026-08-31 23:37:27 | 43.32998 | 21.98299 | 124° | 47km/h | 7105m | 4.4m/s | -14.8°C | 19.2% | 0hPa | 0V | 00:00:00 | 00:00:00 | 00:00:00 | |
| LZ4TU-5 | 2026-08-31 23:36:10 | 43.33141 | 21.96845 | 88° | 37km/h | 6740m | 3.6m/s | -12.0°C | 22.2% | 0hPa | 0V | 00:00:00 | 00:00:00 | 00:00:00 | |
| LZ4TU-5 | 2026-08-31 23:36:05 | 43.33138 | 21.96741 | 103° | 71km/h | 6720m | 3.3m/s | -11.9°C | 22.1% | 0hPa | 0V | 00:00:00 | 00:00:00 | 00:00:00 | |
| LZ4TU-5 | 2026-08-31 23:34:43 | 43.33164 | 21.95332 | 81° | 51km/h | 6322m | 5.9m/s | -10.4°C | 11.7% | 0hPa | 0V | 00:00:00 | 00:00:00 | 00:00:00 | |
| LZ4TU-5 | 2026-08-31 23:34:39 | 43.33173 | 21.95279 | 122° | 38km/h | 6298m | 5.7m/s | -10.3°C | 11.7% | 0hPa | 0V | 00:00:00 | 00:00:00 | 00:00:00 | |
| LZ4TU-5 | 2026-08-31 23:33:18 | 43.33207 | 21.94451 | 124° | 33km/h | 5851m | 6.4m/s | -6.5°C | 15.5% | 0hPa | 0V | 00:00:00 | 00:00:00 | 00:00:00 | |
| LZ4TU-5 | 2026-08-31 23:33:13 | 43.33221 | 21.94399 | 111° | 18km/h | 5820m | 5.6m/s | -6.3°C | 15.6% | 0hPa | 0V | 00:00:00 | 00:00:00 | 00:00:00 | |
| LZ4TU-5 | 2026-08-31 23:32:03 | 43.33379 | 21.93652 | 91° | 35km/h | 5465m | 4.0m/s | -5.0°C | 31.8% | 0hPa | 0V | 00:00:00 | 00:00:00 | 00:00:00 | |
| LZ4TU-5 | 2026-08-31 23:31:58 | 43.33395 | 21.93615 | 157° | 27km/h | 5436m | 3.5m/s | -4.9°C | 37.4% | 0hPa | 0V | 00:00:00 | 00:00:00 | 00:00:00 | |
| LZ4TU-5 | 2026-08-31 23:30:40 | 43.33753 | 21.93068 | 138° | 37km/h | 5015m | 6.7m/s | -4.2°C | 22.5% | 0hPa | 0V | 00:00:00 | 00:00:00 | 00:00:00 | |
| LZ4TU-5 | 2026-08-31 23:30:36 | 43.33782 | 21.93042 | 146° | 31km/h | 4991m | 4.3m/s | -4.1°C | 23.5% | 0hPa | 0V | 00:00:00 | 00:00:00 | 00:00:00 | |
| LZ4TU-5 | 2026-08-31 23:29:25 | 43.34066 | 21.92527 | 139° | 37km/h | 4624m | 5.1m/s | -2.1°C | 43.0% | 0hPa | 0V | 00:00:00 | 00:00:00 | 00:00:00 | |
| LZ4TU-5 | 2026-08-31 23:29:20 | 43.34077 | 21.92468 | 98° | 38km/h | 4599m | 3.7m/s | -1.9°C | 44.3% | 0hPa | 0V | 00:00:00 | 00:00:00 | 00:00:00 | |
| LZ4TU-5 | 2026-08-31 23:28:03 | 43.34171 | 21.91764 | 137° | 18km/h | 4197m | 4.9m/s | 0.3°C | 61.6% | 0hPa | 0V | 00:00:00 | 00:00:00 | 00:00:00 | |
| LZ4TU-5 | 2026-08-31 23:27:58 | 43.34177 | 21.91742 | 77° | 16km/h | 4171m | 5.3m/s | 0.2°C | 67.2% | 0hPa | 0V | 00:00:00 | 00:00:00 | 00:00:00 | |
| LZ4TU-5 | 2026-08-31 23:26:47 | 43.34227 | 21.91073 | 76° | 33km/h | 3820m | 3.9m/s | 2.3°C | 72.8% | 0hPa | 0V | 00:00:00 | 00:00:00 | 00:00:00 | |
| LZ4TU-5 | 2026-08-31 23:26:43 | 43.34229 | 21.91055 | 171° | 22km/h | 3798m | 4.5m/s | 2.4°C | 73.0% | 0hPa | 0V | 00:00:00 | 00:00:00 | 00:00:00 | |
| LZ4TU-5 | 2026-08-31 23:25:33 | 43.34457 | 21.90482 | 211° | 16km/h | 3446m | 5.8m/s | 5.3°C | 70.9% | 0hPa | 0V | 00:00:00 | 00:00:00 | 00:00:00 |